createdAt,value
2022-09-28T00:01:56.795Z,98264.31
2022-09-28T00:04:25.250Z,98253.25
2022-09-28T00:06:55.051Z,98248.59
2022-09-28T00:09:23.439Z,98239.66
2022-09-28T00:11:52.572Z,98239.78
2022-09-28T00:14:21.359Z,98230.50
2022-09-28T00:16:49.801Z,98221.81
2022-09-28T00:19:18.398Z,98222.06
2022-09-28T00:21:46.778Z,98221.88
2022-09-28T00:24:17.194Z,98199.78
2022-09-28T00:26:48.627Z,98191.81
2022-09-28T00:29:22.091Z,98194.59
2022-09-28T00:31:54.284Z,98192.84
2022-09-28T00:34:22.733Z,98190.25
2022-09-28T00:36:51.095Z,98193.38
2022-09-28T00:39:21.478Z,98188.19
2022-09-28T00:41:50.464Z,98184.69
2022-09-28T00:44:43.656Z,98186.28
2022-09-28T00:47:51.587Z,98176.25
2022-09-28T00:50:26.148Z,98163.50
2022-09-28T00:52:59.072Z,98150.56
2022-09-28T00:55:37.237Z,98150.31
2022-09-28T00:58:10.337Z,98141.53
2022-09-28T01:00:40.665Z,98139.53
2022-09-28T01:03:10.081Z,98136.16
2022-09-28T01:05:41.002Z,98134.47
2022-09-28T01:08:11.320Z,98120.91
2022-09-28T01:10:43.613Z,98121.00
2022-09-28T01:13:12.894Z,98114.16
2022-09-28T01:15:50.742Z,98106.28
2022-09-28T01:18:29.496Z,98102.91
2022-09-28T01:21:03.028Z,98100.03
2022-09-28T01:23:54.328Z,98096.66
2022-09-28T01:27:17.831Z,98099.91
2022-09-28T01:29:53.788Z,98086.38
2022-09-28T01:32:37.757Z,98092.41
2022-09-28T01:35:12.833Z,98082.28
2022-09-28T01:37:48.031Z,98079.31
2022-09-28T01:40:17.960Z,98078.41
2022-09-28T01:42:55.530Z,98070.00
2022-09-28T01:45:28.368Z,98068.94
2022-09-28T01:48:02.408Z,98067.41
2022-09-28T01:50:36.683Z,98068.31
2022-09-28T01:53:14.710Z,98059.50
2022-09-28T01:55:48.839Z,98052.38
2022-09-28T01:58:26.480Z,98053.63
2022-09-28T02:01:02.058Z,98039.47
2022-09-28T02:03:36.647Z,98046.94
2022-09-28T02:06:09.923Z,98046.94
2022-09-28T02:08:42.452Z,98037.34
2022-09-28T02:11:15.978Z,98043.56
2022-09-28T02:13:51.055Z,98042.16
2022-09-28T02:16:27.487Z,98032.41
2022-09-28T02:18:56.605Z,98026.53
2022-09-28T02:21:31.971Z,98016.63
2022-09-28T02:24:06.885Z,98040.72
2022-09-28T02:26:41.506Z,98058.31
2022-09-28T02:29:11.366Z,98043.97
2022-09-28T02:31:39.860Z,98052.22
2022-09-28T02:34:08.694Z,98044.84
2022-09-28T02:36:37.713Z,98047.16
2022-09-28T02:39:06.746Z,98044.91
2022-09-28T02:41:49.657Z,98043.88
2022-09-28T02:44:45.866Z,98048.00
2022-09-28T02:47:26.886Z,98040.31
2022-09-28T02:50:14.232Z,98037.28
2022-09-28T02:53:09.881Z,98030.41
2022-09-28T02:55:56.895Z,98029.19
2022-09-28T02:58:40.685Z,98025.31
2022-09-28T03:01:24.556Z,98019.91
2022-09-28T03:03:59.891Z,98017.81
2022-09-28T03:06:33.977Z,98030.78
2022-09-28T03:09:08.237Z,98029.31
2022-09-28T03:11:44.841Z,98026.44
2022-09-28T03:14:13.870Z,98022.31
2022-09-28T03:16:56.291Z,98027.50
2022-09-28T03:19:28.889Z,98018.75
2022-09-28T03:21:57.303Z,98030.41
2022-09-28T03:24:25.896Z,98029.44
2022-09-28T03:26:54.613Z,98027.69
2022-09-28T03:29:24.378Z,98025.94
2022-09-28T03:32:00.615Z,98026.84
2022-09-28T03:34:29.025Z,98034.47
2022-09-28T03:36:57.719Z,98030.34
2022-09-28T03:39:26.256Z,98027.47
2022-09-28T03:41:54.634Z,98032.66
2022-09-28T03:44:23.462Z,98037.84
2022-09-28T03:46:52.072Z,98030.78
2022-09-28T03:49:22.118Z,98026.44
2022-09-28T03:51:51.331Z,98023.34
2022-09-28T03:54:20.047Z,98023.47
2022-09-28T03:56:48.419Z,98012.28
2022-09-28T03:59:18.467Z,98016.63
2022-09-28T04:01:46.994Z,98021.84
2022-09-28T04:04:16.240Z,98022.88
2022-09-28T04:06:46.210Z,98023.59
2022-09-28T04:09:14.725Z,98021.00
2022-09-28T04:12:02.722Z,98026.38
2022-09-28T04:14:32.292Z,98024.69
2022-09-28T04:17:00.709Z,98034.31
2022-09-28T04:19:30.374Z,98033.28
2022-09-28T04:22:10.034Z,98038.28
2022-09-28T04:24:40.201Z,98029.16
2022-09-28T04:27:22.400Z,98034.31
2022-09-28T04:29:50.781Z,98043.00
2022-09-28T04:32:19.886Z,98033.53
2022-09-28T04:34:48.318Z,98041.78
2022-09-28T04:37:21.093Z,98048.78
2022-09-28T04:39:49.584Z,98050.44
2022-09-28T04:42:20.547Z,98053.66
2022-09-28T04:44:50.959Z,98049.47
2022-09-28T04:47:19.301Z,98049.19
2022-09-28T04:50:13.733Z,98049.22
2022-09-28T04:53:03.539Z,98041.09
2022-09-28T04:55:32.646Z,98054.09
2022-09-28T04:58:02.447Z,98054.22
2022-09-28T05:00:33.791Z,98052.09
2022-09-28T05:03:16.434Z,98041.84
2022-09-28T05:06:16.209Z,98057.34
2022-09-28T05:08:47.934Z,98052.69
2022-09-28T05:11:18.367Z,98062.84
2022-09-28T05:13:48.530Z,98057.53
2022-09-28T05:16:20.385Z,98059.69
2022-09-28T05:19:27.440Z,98064.53
2022-09-28T05:22:04.420Z,98066.25
2022-09-28T05:24:39.547Z,98072.22
2022-09-28T05:27:08.164Z,98075.16
2022-09-28T05:29:36.578Z,98083.47
2022-09-28T05:32:23.669Z,98071.66
2022-09-28T05:35:13.013Z,98069.94
2022-09-28T05:37:48.201Z,98078.75
2022-09-28T05:40:19.011Z,98080.00
2022-09-28T05:42:47.431Z,98086.25
2022-09-28T05:45:16.758Z,98085.38
2022-09-28T05:47:47.223Z,98093.25
2022-09-28T05:50:19.795Z,98092.09
2022-09-28T05:52:50.275Z,98085.25
2022-09-28T05:55:20.233Z,98084.75
2022-09-28T05:57:48.662Z,98085.66
2022-09-28T06:00:17.094Z,98095.75
2022-09-28T06:03:08.663Z,98097.75
2022-09-28T06:05:39.390Z,98106.56
2022-09-28T06:08:11.642Z,98100.16
2022-09-28T06:10:45.764Z,98107.25
2022-09-28T06:13:15.138Z,98105.47
2022-09-28T06:15:46.375Z,98106.41
2022-09-28T06:18:16.273Z,98104.78
2022-09-28T06:21:05.961Z,98108.97
2022-09-28T06:23:39.951Z,98117.38
2022-09-28T06:26:10.435Z,98118.81
2022-09-28T06:28:38.977Z,98114.59
2022-09-28T06:31:08.088Z,98125.53
2022-09-28T06:33:44.334Z,98120.88
2022-09-28T06:36:13.418Z,98134.22
2022-09-28T06:38:41.947Z,98132.84
2022-09-28T06:41:13.086Z,98135.84
2022-09-28T06:43:43.368Z,98140.75
2022-09-28T06:46:34.063Z,98138.28
2022-09-28T06:49:21.811Z,98139.13
2022-09-28T06:52:13.152Z,98139.44
2022-09-28T06:55:01.192Z,98144.44
2022-09-28T06:58:01.677Z,98151.44
2022-09-28T07:00:32.970Z,98156.59
2022-09-28T07:03:02.883Z,98159.19
2022-09-28T07:05:54.051Z,98159.94
2022-09-28T07:09:01.861Z,98165.84
2022-09-28T07:12:16.559Z,98167.78
2022-09-28T07:14:58.333Z,98169.38
2022-09-28T07:17:29.608Z,98172.56
2022-09-28T07:20:11.637Z,98174.69
2022-09-28T07:22:44.541Z,98183.47
2022-09-28T07:25:19.364Z,98185.69
2022-09-28T07:28:23.134Z,98191.75
2022-09-28T07:31:29.911Z,98198.41
2022-09-28T07:34:18.217Z,98209.16
2022-09-28T07:36:59.681Z,98201.66
2022-09-28T07:39:27.996Z,98209.25
2022-09-28T07:41:59.792Z,98215.13
2022-09-28T07:44:31.002Z,98216.94
2022-09-28T07:47:02.108Z,98215.84
2022-09-28T07:50:06.365Z,98233.34
2022-09-28T07:53:01.172Z,98236.88
2022-09-28T07:55:32.715Z,98232.25
2022-09-28T07:58:25.656Z,98235.19
2022-09-28T08:01:22.755Z,98246.16
2022-09-28T08:03:56.410Z,98245.44
2022-09-28T08:06:25.503Z,98251.06
2022-09-28T08:08:56.358Z,98260.84
2022-09-28T08:11:44.793Z,98252.50
2022-09-28T08:14:24.747Z,98262.72
2022-09-28T08:17:11.956Z,98263.34
2022-09-28T08:20:11.107Z,98262.41
2022-09-28T08:22:39.972Z,98255.00
2022-09-28T08:25:09.655Z,98274.63
2022-09-28T08:27:38.342Z,98275.81
2022-09-28T08:30:09.110Z,98281.50
2022-09-28T08:32:49.446Z,98276.63
2022-09-28T08:35:37.571Z,98275.63
2022-09-28T08:38:30.997Z,98278.00
2022-09-28T08:41:24.616Z,98290.63
2022-09-28T08:44:24.878Z,98287.47
2022-09-28T08:47:40.288Z,98284.22
2022-09-28T08:50:56.441Z,98295.34
2022-09-28T08:53:53.555Z,98295.13
2022-09-28T08:56:35.538Z,98299.16
2022-09-28T08:59:11.053Z,98295.69
2022-09-28T09:01:49.901Z,98292.44
2022-09-28T09:04:19.443Z,98303.03
2022-09-28T09:07:38.214Z,98297.44
2022-09-28T09:10:36.569Z,98300.00
2022-09-28T09:13:16.216Z,98311.84
2022-09-28T09:15:54.115Z,98296.53
2022-09-28T09:18:59.235Z,98300.72
2022-09-28T09:21:48.755Z,98311.75
2022-09-28T09:24:27.897Z,98313.56
2022-09-28T09:27:07.626Z,98314.34
2022-09-28T09:30:02.051Z,98304.97
2022-09-28T09:32:53.430Z,98310.69
2022-09-28T09:36:08.642Z,98315.66
2022-09-28T09:39:18.241Z,98308.91
2022-09-28T09:42:37.547Z,98316.06
2022-09-28T09:45:57.131Z,98307.69
2022-09-28T09:48:41.396Z,98309.41
2022-09-28T09:51:21.057Z,98303.00
2022-09-28T09:53:55.491Z,98313.00
2022-09-28T09:56:34.637Z,98320.00
2022-09-28T09:59:24.071Z,98314.47
2022-09-28T10:02:27.392Z,98313.09
2022-09-28T10:05:27.824Z,98310.59
2022-09-28T10:08:04.782Z,98324.59
2022-09-28T10:10:36.955Z,98308.47
2022-09-28T10:13:11.324Z,98319.06
2022-09-28T10:15:43.462Z,98315.88
2022-09-28T10:18:22.429Z,98314.88
2022-09-28T10:21:14.873Z,98316.56
2022-09-28T10:23:58.857Z,98314.97
2022-09-28T10:26:35.423Z,98330.75
2022-09-28T10:29:14.898Z,98320.31
2022-09-28T10:31:49.179Z,98325.50
2022-09-28T10:34:31.456Z,98329.50
2022-09-28T10:37:11.881Z,98317.06
2022-09-28T10:40:43.559Z,98328.22
2022-09-28T10:43:23.726Z,98333.97
2022-09-28T10:46:04.860Z,98326.31
2022-09-28T10:48:50.246Z,98340.69
2022-09-28T10:51:19.231Z,98336.59
2022-09-28T10:54:04.366Z,98335.38
2022-09-28T10:56:48.683Z,98334.66
2022-09-28T10:59:38.546Z,98335.16
2022-09-28T11:02:36.704Z,98343.19
2022-09-28T11:05:27.949Z,98346.91
2022-09-28T11:08:01.608Z,98342.91
2022-09-28T11:10:37.569Z,98341.41
2022-09-28T11:13:13.708Z,98339.03
2022-09-28T11:15:46.457Z,98336.69
2022-09-28T11:18:32.331Z,98334.66
2022-09-28T11:21:15.741Z,98336.09
2022-09-28T11:24:05.863Z,98331.91
2022-09-28T11:26:42.665Z,98327.75
2022-09-28T11:29:26.834Z,98327.25
2022-09-28T11:32:18.721Z,98331.72
2022-09-28T11:35:06.313Z,98321.69
2022-09-28T11:38:05.238Z,98325.13
2022-09-28T11:41:28.765Z,98325.50
2022-09-28T11:44:37.723Z,98318.97
2022-09-28T11:47:47.010Z,98328.72
2022-09-28T11:50:28.063Z,98334.22
2022-09-28T11:53:13.197Z,98327.16
2022-09-28T11:55:47.986Z,98331.28
2022-09-28T11:58:25.200Z,98331.63
2022-09-28T12:01:00.685Z,98330.28
2022-09-28T12:03:44.864Z,98329.63
2022-09-28T12:06:19.203Z,98331.88
2022-09-28T12:08:56.928Z,98335.75
2022-09-28T12:11:48.189Z,98334.81
2022-09-28T12:14:30.761Z,98332.97
2022-09-28T12:17:07.908Z,98334.81
2022-09-28T12:19:43.837Z,98339.34
2022-09-28T12:22:19.586Z,98334.81
2022-09-28T12:24:52.903Z,98345.91
2022-09-28T12:27:31.071Z,98335.81
2022-09-28T12:30:06.352Z,98327.31
2022-09-28T12:32:40.485Z,98335.84
2022-09-28T12:35:17.243Z,98334.66
2022-09-28T12:38:23.049Z,98332.97
2022-09-28T12:40:58.609Z,98329.25
2022-09-28T12:43:46.432Z,98332.25
2022-09-28T12:46:30.139Z,98326.56
2022-09-28T12:52:29.630Z,98329.44
2022-09-28T12:55:26.895Z,98338.69
2022-09-28T12:58:17.205Z,98330.19
2022-09-28T13:00:59.800Z,98334.75
2022-09-28T13:04:17.067Z,98340.56
2022-09-28T13:07:04.516Z,98332.31
2022-09-28T13:09:45.383Z,98336.25
2022-09-28T13:12:27.330Z,98333.06
2022-09-28T13:15:23.649Z,98335.59
2022-09-28T13:18:02.973Z,98337.16
2022-09-28T13:20:43.394Z,98343.44
2022-09-28T13:23:20.921Z,98338.88
2022-09-28T13:25:56.685Z,98341.41
2022-09-28T13:28:27.775Z,98340.56
2022-09-28T13:33:35.896Z,98348.53
2022-09-28T13:36:25.557Z,98331.97
2022-09-28T13:38:55.291Z,98341.56
2022-09-28T13:41:29.754Z,98336.34
2022-09-28T13:44:47.146Z,98333.13
2022-09-28T13:47:35.101Z,98333.91
2022-09-28T13:50:22.259Z,98333.56
2022-09-28T13:53:02.283Z,98332.97
2022-09-28T13:55:37.533Z,98334.47
2022-09-28T13:58:17.686Z,98332.41
2022-09-28T14:00:50.576Z,98340.81
2022-09-28T14:03:45.232Z,98334.16
2022-09-28T14:06:27.018Z,98337.09
2022-09-28T14:09:44.395Z,98336.34
2022-09-28T14:12:48.247Z,98340.81
2022-09-28T14:15:43.801Z,98345.09
2022-09-28T14:18:29.831Z,98341.66
2022-09-28T14:21:55.569Z,98347.53
2022-09-28T14:24:38.036Z,98343.44
2022-09-28T14:27:41.773Z,98348.03
2022-09-28T14:30:23.595Z,98352.81
2022-09-28T14:32:58.208Z,98351.97
2022-09-28T14:35:34.442Z,98343.91
2022-09-28T14:38:25.721Z,98344.41
2022-09-28T14:41:17.680Z,98350.53
2022-09-28T14:44:10.022Z,98351.81
2022-09-28T14:46:45.468Z,98351.63
2022-09-28T14:49:51.259Z,98357.22
2022-09-28T14:52:40.698Z,98355.16
2022-09-28T14:55:17.222Z,98358.22
2022-09-28T14:57:45.910Z,98362.53
2022-09-28T15:00:22.533Z,98359.56
2022-09-28T15:02:52.896Z,98366.50
2022-09-28T15:05:28.675Z,98369.03
2022-09-28T15:07:58.617Z,98374.63
2022-09-28T15:10:32.405Z,98363.59
2022-09-28T15:13:05.599Z,98368.94
2022-09-28T15:15:37.603Z,98363.56
2022-09-28T15:18:36.643Z,98380.47
2022-09-28T15:21:05.344Z,98377.97
2022-09-28T15:23:40.591Z,98375.75
2022-09-28T15:26:22.999Z,98374.53
2022-09-28T15:28:51.534Z,98373.59
2022-09-28T15:31:22.765Z,98380.72
2022-09-28T15:34:08.644Z,98379.81
2022-09-28T15:36:40.487Z,98373.34
2022-09-28T15:39:15.607Z,98382.25
2022-09-28T15:41:45.233Z,98385.78
2022-09-28T15:44:30.201Z,98382.25
2022-09-28T15:47:11.342Z,98388.13
2022-09-28T15:49:45.327Z,98390.38
2022-09-28T15:52:33.963Z,98387.84
2022-09-28T15:55:07.219Z,98384.56
2022-09-28T15:57:39.819Z,98387.56
2022-09-28T16:00:26.953Z,98391.41
2022-09-28T16:03:05.467Z,98397.78
2022-09-28T16:05:42.988Z,98391.69
2022-09-28T16:08:24.715Z,98388.34
2022-09-28T16:11:10.950Z,98395.53
2022-09-28T16:13:57.284Z,98402.13
2022-09-28T16:16:30.830Z,98390.78
2022-09-28T16:19:01.710Z,98393.25
2022-09-28T16:21:44.209Z,98402.13
2022-09-28T16:24:23.157Z,98397.53
2022-09-28T16:27:00.035Z,98396.03
2022-09-28T16:29:40.029Z,98407.97
2022-09-28T16:32:41.790Z,98405.56
2022-09-28T16:35:26.012Z,98408.44
2022-09-28T16:38:10.692Z,98406.44
2022-09-28T16:40:46.303Z,98410.09
2022-09-28T16:43:26.964Z,98416.25
2022-09-28T16:45:58.042Z,98425.78
2022-09-28T16:48:28.461Z,98420.34
2022-09-28T16:50:56.874Z,98420.50
2022-09-28T16:53:43.975Z,98426.50
2022-09-28T16:56:14.042Z,98422.31
2022-09-28T16:58:44.215Z,98425.84
2022-09-28T17:01:13.756Z,98427.81
2022-09-28T17:03:46.658Z,98424.31
2022-09-28T17:06:16.883Z,98426.16
2022-09-28T17:08:45.663Z,98427.97
2022-09-28T17:11:22.794Z,98429.06
2022-09-28T17:13:56.895Z,98437.78
2022-09-28T17:19:22.519Z,98433.56
2022-09-28T17:21:52.249Z,98437.19
2022-09-28T17:24:21.453Z,98444.75
2022-09-28T17:26:52.569Z,98446.47
2022-09-28T17:29:22.802Z,98449.28
2022-09-28T17:31:51.479Z,98450.19
2022-09-28T17:34:20.769Z,98444.22
2022-09-28T17:36:49.628Z,98449.41
2022-09-28T17:39:20.263Z,98448.00
2022-09-28T17:41:48.823Z,98444.78
2022-09-28T17:44:17.403Z,98447.25
2022-09-28T17:46:49.585Z,98446.50
2022-09-28T17:49:18.758Z,98451.06
2022-09-28T17:51:47.288Z,98449.38
2022-09-28T17:54:19.897Z,98445.22
2022-09-28T17:56:48.812Z,98449.69
2022-09-28T17:59:19.732Z,98446.44
2022-09-28T18:01:49.531Z,98450.19
2022-09-28T18:04:46.904Z,98447.94
2022-09-28T18:07:06.923Z,98455.09
2022-09-28T18:09:35.243Z,98462.06
2022-09-28T18:12:06.601Z,98456.91
2022-09-28T18:14:35.803Z,98461.44
2022-09-28T18:17:05.752Z,98457.06
2022-09-28T18:19:34.165Z,98456.91
2022-09-28T18:22:02.710Z,98455.25
2022-09-28T18:24:32.517Z,98457.06
2022-09-28T18:27:01.159Z,98454.59
2022-09-28T18:29:33.114Z,98452.94
2022-09-28T18:32:03.123Z,98457.22
2022-09-28T18:34:36.444Z,98459.19
2022-09-28T18:37:05.555Z,98467.75
2022-09-28T18:39:33.931Z,98473.09
2022-09-28T18:42:02.440Z,98470.72
2022-09-28T18:44:30.929Z,98468.31
2022-09-28T18:47:02.333Z,98474.38
2022-09-28T18:49:33.662Z,98472.81
2022-09-28T18:52:02.883Z,98466.75
2022-09-28T18:54:31.225Z,98472.88
2022-09-28T18:56:59.574Z,98475.75
2022-09-28T18:59:28.373Z,98483.47
2022-09-28T19:01:56.973Z,98484.06
2022-09-28T19:04:25.631Z,98488.28
2022-09-28T19:06:55.446Z,98485.88
2022-09-28T19:09:26.491Z,98482.34
2022-09-28T19:11:55.065Z,98487.50
2022-09-28T19:14:23.386Z,98485.03
2022-09-28T19:16:51.779Z,98487.09
2022-09-28T19:19:21.722Z,98491.22
2022-09-28T19:21:50.266Z,98485.88
2022-09-28T19:24:20.957Z,98491.16
2022-09-28T19:26:50.817Z,98491.09
2022-09-28T19:29:19.295Z,98496.28
2022-09-28T19:31:47.984Z,98488.69
2022-09-28T19:34:16.812Z,98493.97
2022-09-28T19:36:45.561Z,98496.75
2022-09-28T19:39:15.986Z,98494.09
2022-09-28T19:41:49.578Z,98500.09
2022-09-28T19:44:25.141Z,98505.28
2022-09-28T19:46:55.522Z,98499.28
2022-09-28T19:49:25.572Z,98508.63
2022-09-28T19:52:12.171Z,98491.63
2022-09-28T19:54:43.966Z,98510.59
2022-09-28T19:57:16.036Z,98502.31
2022-09-28T19:59:47.489Z,98507.66
2022-09-28T20:02:18.086Z,98506.47
2022-09-28T20:04:46.461Z,98512.94
2022-09-28T20:07:15.396Z,98520.13
2022-09-28T20:09:43.890Z,98519.16
2022-09-28T20:12:13.697Z,98511.41
2022-09-28T20:14:42.243Z,98516.34
2022-09-28T20:17:11.583Z,98519.06
2022-09-28T20:19:40.027Z,98524.22
2022-09-28T20:22:08.571Z,98518.50
2022-09-28T20:24:37.182Z,98523.75
2022-09-28T20:27:05.889Z,98530.75
2022-09-28T20:29:35.889Z,98530.75
2022-09-28T20:32:04.882Z,98532.94
2022-09-28T20:34:34.475Z,98534.91
2022-09-28T20:37:03.086Z,98533.06
2022-09-28T20:39:31.670Z,98541.50
2022-09-28T20:42:00.210Z,98535.53
2022-09-28T20:44:28.715Z,98543.31
2022-09-28T20:46:58.823Z,98535.03
2022-09-28T20:49:28.161Z,98545.28
2022-09-28T20:51:56.539Z,98543.59
2022-09-28T20:54:25.563Z,98541.13
2022-09-28T20:56:53.941Z,98541.94
2022-09-28T20:59:25.958Z,98547.94
2022-09-28T21:01:54.440Z,98539.16
2022-09-28T21:04:24.275Z,98540.72
2022-09-28T21:06:53.233Z,98544.41
2022-09-28T21:09:21.813Z,98551.09
2022-09-28T21:11:50.339Z,98547.84
2022-09-28T21:14:19.038Z,98558.59
2022-09-28T21:16:47.774Z,98557.59
2022-09-28T21:19:16.138Z,98562.34
2022-09-28T21:21:45.968Z,98568.53
2022-09-28T21:24:14.376Z,98568.44
2022-09-28T21:26:42.831Z,98565.94
2022-09-28T21:29:14.993Z,98563.44
2022-09-28T21:31:46.829Z,98563.91
2022-09-28T21:34:19.307Z,98565.19
2022-09-28T21:36:51.341Z,98559.81
2022-09-28T21:39:20.476Z,98568.13
2022-09-28T21:41:49.103Z,98556.50
2022-09-28T21:44:17.864Z,98565.00
2022-09-28T21:46:46.337Z,98565.53
2022-09-28T21:49:15.020Z,98574.56
2022-09-28T21:51:43.693Z,98568.63
2022-09-28T21:54:15.064Z,98567.31
2022-09-28T21:56:43.389Z,98566.41
2022-09-28T21:59:11.726Z,98556.94
2022-09-28T22:01:42.750Z,98563.13
2022-09-28T22:04:12.048Z,98559.56
2022-09-28T22:06:40.836Z,98560.78
2022-09-28T22:09:09.372Z,98566.69
2022-09-28T22:11:39.043Z,98567.91
2022-09-28T22:14:07.361Z,98566.34
2022-09-28T22:16:35.688Z,98570.88
2022-09-28T22:19:04.192Z,98573.47
2022-09-28T22:21:34.923Z,98571.13
2022-09-28T22:24:06.528Z,98573.59
2022-09-28T22:26:39.452Z,98568.75
2022-09-28T22:29:10.204Z,98571.03
2022-09-28T22:31:40.700Z,98576.47
2022-09-28T22:34:10.211Z,98578.50
2022-09-28T22:36:38.751Z,98583.78
2022-09-28T22:39:07.218Z,98589.28
2022-09-28T22:41:35.768Z,98588.00
2022-09-28T22:44:05.706Z,98585.59
2022-09-28T22:46:34.118Z,98586.34
2022-09-28T22:49:02.884Z,98592.56
2022-09-28T22:51:31.921Z,98583.31
2022-09-28T22:54:01.278Z,98583.25
2022-09-28T22:56:30.305Z,98578.44
2022-09-28T22:58:59.146Z,98581.00
2022-09-28T23:01:31.155Z,98581.16
2022-09-28T23:04:00.922Z,98578.56
2022-09-28T23:06:30.788Z,98576.03
2022-09-28T23:08:59.275Z,98576.78
2022-09-28T23:11:28.501Z,98575.13
2022-09-28T23:13:58.843Z,98577.03
2022-09-28T23:16:30.146Z,98578.56
2022-09-28T23:18:58.943Z,98575.16
2022-09-28T23:21:29.232Z,98571.69
2022-09-28T23:24:01.012Z,98567.34
2022-09-28T23:26:31.636Z,98571.78
2022-09-28T23:29:00.940Z,98570.38
2022-09-28T23:31:32.521Z,98570.50
2022-09-28T23:34:02.827Z,98563.81
2022-09-28T23:36:32.047Z,98576.28
2022-09-28T23:39:00.589Z,98570.22
2022-09-28T23:41:29.147Z,98569.75
2022-09-28T23:43:57.531Z,98570.59
2022-09-28T23:46:26.040Z,98560.56
2022-09-28T23:48:55.809Z,98560.47
2022-09-28T23:51:24.211Z,98570.34
2022-09-28T23:53:52.575Z,98565.97
2022-09-28T23:56:21.287Z,98570.31
2022-09-28T23:58:49.638Z,98569.34
